Dyer, Kentucky
Current Conditions -  °F | °C
As of 6:35 AM on Friday 31 Oct 2014 (Local Time) from KFTK Reporting Station
Overcast Overcast  
Wind Chill: 45°   Ceiling: 2700
Heat Index: 45°   Visibility: 10mi
Dew Point: 43°   Wind: 3mph
Humidity: 93%   Direction: 320°NW
Pressure: 29.98"   Gusts: NA
Location:  37.7438°N, 86.2725°W
Report Text: KFTK 311135Z AUTO 32003KT 10SM BKN027 OVC047 07/06 A2998 RMK AO2 RAE1136
Loading
Personal Weather Stations






























Interactive Weather Map
Tropical Storm Tracking
New forecast layout! Learn more

10-Day Weather Forecast

Advertisements
Track Severe Weather on mobile